Time;durP1;ratioP1;P1;durP2;ratioP2;P2;SDS_P1;SDS_P2;PMS_P1;PMS_P2;Temp;Humidity;BMP_temperature;BMP_pressure;BME280_temperature;BME280_humidity;BME280_pressure;Samples;Min_cycle;Max_cycle;Signal;HPM_P1;HPM_P2
2021/09/04 00:00:54;;;;;;;7.78;2.25;;;;;;;24.53;55.03;100877.03;5054639;28;20052;-73
2021/09/04 00:03:22;;;;;;;7.35;2.67;;;;;;;24.55;54.86;100886.81;5054538;28;20041;-72
2021/09/04 00:06:10;;;;;;;6.78;2.20;;;;;;;24.54;54.65;100886.91;5044571;28;20080;-73
2021/09/04 00:08:39;;;;;;;6.35;2.50;;;;;;;24.49;54.80;100895.16;5048736;28;20060;-73
2021/09/04 00:11:06;;;;;;;9.65;2.63;;;;;;;24.49;54.75;100894.28;5054700;28;20079;-72
2021/09/04 00:13:36;;;;;;;5.63;2.35;;;;;;;24.52;54.67;100889.66;5050944;28;20045;-73
2021/09/04 00:16:06;;;;;;;13.48;2.92;;;;;;;24.49;54.78;100895.16;5050513;28;20048;-73
2021/09/04 00:18:36;;;;;;;12.00;3.30;;;;;;;24.48;54.95;100888.00;5047963;28;20400;-73
2021/09/04 00:21:09;;;;;;;6.57;2.67;;;;;;;24.47;54.94;100885.41;5055703;28;20132;-72
2021/09/04 00:23:38;;;;;;;7.70;2.33;;;;;;;24.49;54.55;100883.50;5047892;28;20140;-72
2021/09/04 00:26:09;;;;;;;7.85;2.83;;;;;;;24.51;54.49;100881.63;5048806;28;20052;-72
2021/09/04 00:28:36;;;;;;;7.72;2.80;;;;;;;24.50;55.03;100880.75;5053972;28;20041;-72
2021/09/04 00:31:06;;;;;;;10.95;2.53;;;;;;;24.54;54.85;100885.09;5057005;28;20045;-73
2021/09/04 00:33:33;;;;;;;8.02;2.72;;;;;;;24.54;55.12;100877.00;5050586;28;20040;-73
2021/09/04 00:36:01;;;;;;;6.93;2.30;;;;;;;24.53;54.95;100880.63;5049475;28;20063;-72
2021/09/04 00:38:32;;;;;;;11.18;2.80;;;;;;;24.53;54.95;100879.75;5040971;28;20049;-72
2021/09/04 00:41:20;;;;;;;12.73;3.35;;;;;;;24.72;54.27;100866.38;5049340;28;20048;-72
2021/09/04 00:43:50;;;;;;;13.73;2.63;;;;;;;24.75;54.25;100871.63;5047031;28;20045;-72
2021/09/04 00:46:17;;;;;;;8.85;2.55;;;;;;;24.77;53.83;100869.75;5053575;28;20044;-72
2021/09/04 00:48:45;;;;;;;12.05;3.08;;;;;;;24.62;54.36;100869.44;5048178;28;20048;-72
2021/09/04 00:51:14;;;;;;;10.65;2.60;;;;;;;24.57;54.64;100868.75;5051402;28;20047;-72
2021/09/04 00:53:43;;;;;;;10.80;2.63;;;;;;;24.60;54.65;100878.56;5053898;28;20051;-73
2021/09/04 00:56:13;;;;;;;11.05;3.10;;;;;;;24.56;54.70;100877.78;5053662;28;20514;-73
2021/09/04 00:58:41;;;;;;;11.63;2.80;;;;;;;24.73;54.27;100863.63;5053253;28;20065;-73
2021/09/04 01:01:10;;;;;;;14.25;2.85;;;;;;;24.75;54.05;100879.72;5052958;28;20092;-73
2021/09/04 01:03:38;;;;;;;12.70;2.30;;;;;;;24.58;54.65;100875.91;5052215;28;20095;-73
2021/09/04 01:06:11;;;;;;;15.40;2.80;;;;;;;24.56;54.74;100863.41;5050976;28;20033;-73
2021/09/04 01:08:39;;;;;;;8.27;2.60;;;;;;;24.50;55.00;100877.16;5049414;28;20124;-73
2021/09/04 01:11:11;;;;;;;8.60;2.22;;;;;;;24.53;54.81;100883.31;5053046;28;20087;-73
2021/09/04 01:13:38;;;;;;;12.38;2.85;;;;;;;24.51;54.94;100878.91;5052157;28;20060;-73
2021/09/04 01:16:06;;;;;;;7.45;2.65;;;;;;;24.52;55.01;100881.56;5052404;28;20040;-73
2021/09/04 01:18:59;;;;;;;8.98;2.72;;;;;;;24.55;54.89;100884.13;5034424;28;20439;-72
2021/09/04 01:21:29;;;;;;;12.20;2.55;;;;;;;24.57;55.26;100878.66;5052444;28;20036;-73
2021/09/04 01:24:00;;;;;;;9.75;2.90;;;;;;;24.59;55.21;100883.09;5038153;28;20051;-74
2021/09/04 01:26:31;;;;;;;8.88;2.80;;;;;;;24.59;55.38;100869.59;5042864;28;20041;-69
2021/09/04 01:29:00;;;;;;;9.52;2.67;;;;;;;24.61;55.36;100869.53;5035848;28;20496;-73
2021/09/04 01:31:30;;;;;;;11.70;2.35;;;;;;;24.62;55.85;100873.97;5050430;28;20040;-73
2021/09/04 01:33:57;;;;;;;11.82;2.90;;;;;;;24.63;55.75;100871.19;5051112;28;20103;-73
2021/09/04 01:36:32;;;;;;;13.25;2.85;;;;;;;24.63;55.76;100862.22;5051641;28;20040;-74
2021/09/04 01:39:20;;;;;;;11.57;2.53;;;;;;;24.60;55.44;100867.75;5053701;28;20063;-73
2021/09/04 01:41:53;;;;;;;11.73;2.80;;;;;;;24.57;55.21;100867.88;5048711;28;20045;-73
2021/09/04 01:44:23;;;;;;;8.23;3.03;;;;;;;24.51;54.86;100873.53;5040996;28;20123;-74
2021/09/04 01:46:51;;;;;;;6.75;2.55;;;;;;;24.51;54.81;100885.19;5044394;28;20037;-74
2021/09/04 01:49:19;;;;;;;7.78;2.90;;;;;;;24.51;54.35;100876.22;5048342;28;20052;-73
2021/09/04 01:52:07;;;;;;;7.10;3.08;;;;;;;24.51;54.43;100876.22;5027238;28;20041;-73
2021/09/04 01:54:42;;;;;;;6.40;2.53;;;;;;;24.48;54.23;100885.31;5057780;28;20045;-73
2021/09/04 01:57:13;;;;;;;7.75;2.78;;;;;;;24.47;54.13;100891.69;5063257;28;20508;-73
2021/09/04 01:59:41;;;;;;;6.82;3.22;;;;;;;24.41;54.23;100889.22;5054222;28;20488;-73
2021/09/04 02:02:08;;;;;;;8.57;3.15;;;;;;;24.41;53.72;100885.63;5051708;28;20037;-73
2021/09/04 02:04:39;;;;;;;7.93;2.75;;;;;;;24.37;53.68;100884.88;5044039;28;20045;-72
2021/09/04 02:07:07;;;;;;;10.48;4.25;;;;;;;24.36;53.53;100888.50;5043071;28;20488;-73
2021/09/04 02:09:34;;;;;;;9.05;3.45;;;;;;;24.35;53.26;100881.34;5051577;28;20037;-73
2021/09/04 02:12:04;;;;;;;8.13;2.90;;;;;;;24.35;53.37;100888.59;5047533;28;20128;-73
2021/09/04 02:14:33;;;;;;;9.95;3.45;;;;;;;24.36;53.38;100896.59;5052027;28;20037;-73
2021/09/04 02:17:21;;;;;;;11.68;3.55;;;;;;;24.34;53.56;100890.41;5051950;28;20045;-73
2021/09/04 02:19:51;;;;;;;10.32;2.65;;;;;;;24.38;53.58;100892.03;5051780;28;20128;-73
2021/09/04 02:22:20;;;;;;;7.03;3.05;;;;;;;24.39;53.73;100893.78;5059381;28;20071;-73
2021/09/04 02:24:50;;;;;;;9.45;3.33;;;;;;;24.40;54.01;100895.56;5052199;28;20459;-73
2021/09/04 02:27:19;;;;;;;11.57;3.60;;;;;;;24.39;53.97;100896.50;5049654;28;20124;-73
2021/09/04 02:29:48;;;;;;;8.02;2.90;;;;;;;24.39;54.22;100892.91;5052009;28;20083;-73
2021/09/04 02:32:16;;;;;;;8.18;3.72;;;;;;;24.39;54.19;100901.00;5051029;28;20127;-73
2021/09/04 02:34:44;;;;;;;6.38;2.40;;;;;;;24.38;54.22;100902.81;5046858;28;20400;-73
2021/09/04 02:37:12;;;;;;;13.40;3.40;;;;;;;24.35;54.15;100900.22;5049441;28;20464;-73
2021/09/04 02:39:40;;;;;;;10.07;3.15;;;;;;;24.32;54.27;100899.47;5059486;28;20048;-73
2021/09/04 02:42:08;;;;;;;7.40;2.58;;;;;;;24.35;54.13;100897.53;5051967;28;20120;-73
2021/09/04 02:44:36;;;;;;;8.93;2.88;;;;;;;24.34;54.29;100897.63;5051506;28;20040;-74
2021/09/04 02:47:06;;;;;;;9.45;2.92;;;;;;;24.31;54.37;100906.69;5042690;28;20116;-73
2021/09/04 02:49:34;;;;;;;11.02;3.00;;;;;;;24.31;54.32;100903.13;5049157;28;20380;-73
2021/09/04 02:52:05;;;;;;;8.95;3.10;;;;;;;24.29;54.17;100904.97;5051873;28;20092;-73
2021/09/04 02:54:35;;;;;;;8.35;3.15;;;;;;;24.22;54.08;100905.22;5045632;28;20048;-73
2021/09/04 02:57:12;;;;;;;11.32;2.85;;;;;;;24.21;54.18;100908.00;5034844;28;20040;-74
2021/09/04 02:59:39;;;;;;;10.52;3.40;;;;;;;24.21;53.98;100897.22;5050679;28;20041;-74
2021/09/04 03:02:08;;;;;;;9.57;2.80;;;;;;;24.25;53.90;100906.06;5051965;28;20539;-73
2021/09/04 03:04:36;;;;;;;7.90;3.10;;;;;;;24.22;53.84;100905.22;5050573;28;20049;-73
2021/09/04 03:07:03;;;;;;;10.43;3.65;;;;;;;24.23;53.83;100900.72;5050406;28;20049;-73
2021/09/04 03:09:30;;;;;;;9.85;3.50;;;;;;;24.24;53.79;100910.56;5056185;28;20044;-73
2021/09/04 03:12:02;;;;;;;10.15;4.22;;;;;;;24.28;53.80;100911.34;5044716;28;20395;-72
2021/09/04 03:14:31;;;;;;;6.57;3.20;;;;;;;24.27;53.90;100901.50;5052352;28;20037;-72
2021/09/04 03:17:12;;;;;;;10.75;4.00;;;;;;;24.23;53.49;100898.88;5055018;28;20044;-73
2021/09/04 03:19:41;;;;;;;10.98;3.40;;;;;;;24.21;52.98;100894.50;5054792;28;20132;-72
2021/09/04 03:22:11;;;;;;;14.52;4.03;;;;;;;24.20;52.09;100887.34;5055729;28;20033;-73
2021/09/04 03:24:41;;;;;;;9.05;3.88;;;;;;;24.18;51.68;100886.47;5054232;28;20055;-73
2021/09/04 03:27:12;;;;;;;8.90;3.28;;;;;;;24.17;51.80;100892.81;5051552;28;20037;-73
2021/09/04 03:29:41;;;;;;;8.90;3.50;;;;;;;24.18;51.98;100892.75;5053967;28;20049;-73
2021/09/04 03:32:09;;;;;;;11.20;3.70;;;;;;;24.17;52.21;100882.91;5054742;28;20400;-73
2021/09/04 03:34:39;;;;;;;9.02;3.30;;;;;;;24.16;52.19;100886.53;5054196;28;20044;-73
2021/09/04 03:37:10;;;;;;;8.70;2.72;;;;;;;24.15;52.08;100883.94;5053519;28;20047;-73
2021/09/04 03:39:37;;;;;;;8.75;2.92;;;;;;;24.14;51.90;100885.75;5043293;28;20057;-73
2021/09/04 03:42:05;;;;;;;8.23;3.05;;;;;;;24.15;51.64;100887.50;5049806;28;20041;-73
2021/09/04 03:44:33;;;;;;;12.90;3.22;;;;;;;24.13;51.47;100886.69;5052699;28;20041;-73
2021/09/04 03:47:20;;;;;;;10.80;3.08;;;;;;;24.11;51.64;100882.25;5053030;28;20049;-73
2021/09/04 03:49:49;;;;;;;10.95;3.00;;;;;;;24.10;51.63;100889.47;5047736;28;20048;-73
2021/09/04 03:52:19;;;;;;;10.52;3.20;;;;;;;24.08;51.54;100894.06;5049219;28;20045;-73
2021/09/04 03:54:48;;;;;;;9.88;3.63;;;;;;;24.09;51.32;100894.94;5046349;28;20041;-73
2021/09/04 03:57:19;;;;;;;10.02;3.40;;;;;;;24.03;51.43;100890.66;5054915;28;20041;-74
2021/09/04 03:59:46;;;;;;;10.90;4.00;;;;;;;24.02;51.20;100878.13;5054660;28;20175;-73
2021/09/04 04:02:15;;;;;;;10.38;3.45;;;;;;;24.05;51.13;100879.81;5056528;28;20048;-73
2021/09/04 04:04:43;;;;;;;11.27;3.42;;;;;;;24.11;51.19;100890.34;5054261;28;20408;-73
2021/09/04 04:07:11;;;;;;;11.68;3.63;;;;;;;24.19;51.05;100888.28;5053056;28;20060;-73
2021/09/04 04:09:41;;;;;;;9.07;3.83;;;;;;;24.24;51.04;100891.69;5053316;28;20043;-73
2021/09/04 04:12:28;;;;;;;9.90;3.50;;;;;;;24.32;50.88;100889.56;5046939;28;20041;-73
2021/09/04 04:14:59;;;;;;;9.70;3.60;;;;;;;24.40;50.98;100890.16;5056407;28;20090;-74
2021/09/04 04:17:47;;;;;;;6.57;2.45;;;;;;;24.44;51.12;100883.69;5052809;28;20056;-73
2021/09/04 04:20:14;;;;;;;11.98;3.38;;;;;;;24.53;50.67;100893.25;5054262;28;20037;-74
2021/09/04 04:22:46;;;;;;;9.38;3.20;;;;;;;24.63;50.53;100887.41;5050638;28;20041;-73
2021/09/04 04:25:14;;;;;;;8.32;2.90;;;;;;;24.72;50.02;100885.28;5052951;28;20060;-73
2021/09/04 04:27:42;;;;;;;6.70;2.47;;;;;;;24.83;49.73;100886.59;5053763;28;20515;-73
2021/09/04 04:30:13;;;;;;;4.90;2.22;;;;;;;24.99;49.79;100886.88;5045930;28;20041;-73
2021/09/04 04:32:40;;;;;;;8.23;2.88;;;;;;;25.06;50.01;100892.91;5060649;28;20083;-73
2021/09/04 04:35:11;;;;;;;9.23;3.00;;;;;;;25.09;50.19;100895.47;5053875;28;20041;-73
2021/09/04 04:37:40;;;;;;;9.80;3.15;;;;;;;25.22;50.05;100891.28;5053308;28;20037;-73
2021/09/04 04:40:15;;;;;;;6.88;2.85;;;;;;;25.36;49.62;100888.88;5052455;28;20094;-74
2021/09/04 04:43:03;;;;;;;6.97;2.80;;;;;;;25.41;49.38;100890.44;5061191;28;20087;-73
2021/09/04 04:45:30;;;;;;;7.55;3.45;;;;;;;25.38;49.77;100898.69;5073593;28;20047;-74
2021/09/04 04:47:57;;;;;;;8.55;3.25;;;;;;;25.45;49.61;100893.00;5073288;28;20041;-72
2021/09/04 04:50:26;;;;;;;7.38;2.60;;;;;;;25.59;49.13;100885.22;5073568;28;20097;-73
2021/09/04 04:52:54;;;;;;;7.07;2.70;;;;;;;25.83;48.91;100894.94;5073584;28;20511;-74
2021/09/04 04:55:24;;;;;;;8.82;2.90;;;;;;;25.98;48.33;100887.94;5063824;28;20040;-73
2021/09/04 04:57:52;;;;;;;8.50;2.63;;;;;;;26.08;48.26;100886.56;5073470;28;20047;-73
2021/09/04 05:00:33;;;;;;;6.18;2.85;;;;;;;25.98;48.25;100883.41;5073257;28;20115;-73
2021/09/04 05:03:00;;;;;;;7.95;2.95;;;;;;;25.93;48.38;100893.53;5069512;28;20039;-74
2021/09/04 05:05:28;;;;;;;6.43;2.95;;;;;;;25.87;48.46;100893.81;5070525;28;20049;-73
2021/09/04 05:07:55;;;;;;;8.52;2.83;;;;;;;25.76;48.48;100899.72;5072879;28;20044;-74
2021/09/04 05:10:24;;;;;;;8.18;2.70;;;;;;;25.63;48.81;100890.41;5071034;28;20052;-73
2021/09/04 05:12:52;;;;;;;7.72;2.72;;;;;;;25.78;48.86;100891.56;5076963;28;20047;-74
2021/09/04 05:15:22;;;;;;;6.05;2.92;;;;;;;25.84;48.75;100895.81;5072364;28;20044;-73
2021/09/04 05:17:49;;;;;;;8.95;2.63;;;;;;;25.78;49.10;100900.56;5077109;28;20044;-73
2021/09/04 05:20:22;;;;;;;8.77;2.40;;;;;;;25.78;49.24;100900.56;5065537;28;20044;-73
2021/09/04 05:22:50;;;;;;;6.10;2.45;;;;;;;25.84;49.26;100907.50;5072461;28;20106;-73
2021/09/04 05:25:19;;;;;;;7.18;2.38;;;;;;;25.80;49.10;100905.88;5061813;28;20045;-74
2021/09/04 05:27:48;;;;;;;7.20;2.50;;;;;;;25.73;49.34;100896.31;5052951;28;20040;-73
2021/09/04 05:30:34;;;;;;;9.95;2.40;;;;;;;26.07;48.23;100888.38;5072357;28;20086;-76
2021/09/04 05:33:02;;;;;;;9.88;2.00;;;;;;;26.31;47.17;100891.81;5072306;28;20111;-74
2021/09/04 05:35:30;;;;;;;10.40;2.85;;;;;;;26.69;46.54;100895.38;5072805;28;20036;-75
2021/09/04 05:37:58;;;;;;;5.32;1.90;;;;;;;26.65;46.30;100901.03;5064518;28;20037;-70
2021/09/04 05:40:32;;;;;;;7.03;2.10;;;;;;;26.63;46.85;100892.09;5072467;28;20048;-71
2021/09/04 05:43:04;;;;;;;9.82;2.25;;;;;;;26.78;46.03;100900.31;5072107;28;20037;-71
2021/09/04 05:48:54;;;;;;;12.73;2.25;;;;;;;27.37;45.32;100888.34;5072302;28;20037;-72
2021/09/04 05:51:21;;;;;;;6.35;2.33;;;;;;;27.16;45.32;100895.75;5072231;28;20040;-71
2021/09/04 05:53:49;;;;;;;6.43;2.72;;;;;;;27.07;45.70;100893.50;5072200;28;20045;-71
2021/09/04 05:56:16;;;;;;;10.43;2.80;;;;;;;27.04;45.86;100892.78;5072076;28;20423;-71
2021/09/04 05:58:45;;;;;;;12.80;2.70;;;;;;;26.96;46.21;100904.88;5072133;28;20522;-71
2021/09/04 06:01:12;;;;;;;7.05;3.03;;;;;;;27.40;46.08;100900.84;5072144;28;20083;-72
2021/09/04 06:03:39;;;;;;;9.40;2.67;;;;;;;27.64;45.60;100891.47;5071916;28;20044;-71
2021/09/04 06:06:25;;;;;;;6.45;2.72;;;;;;;27.77;45.08;100887.13;5051477;28;20045;-66
2021/09/04 06:08:52;;;;;;;6.22;2.33;;;;;;;27.51;45.41;100888.47;5067779;28;20067;-72
2021/09/04 06:14:43;;;;;;;8.55;2.72;;;;;;;27.53;45.53;100902.00;5065581;28;20090;-74
2021/09/04 06:17:10;;;;;;;8.70;2.40;;;;;;;27.63;45.40;100896.03;5071606;28;20037;-74
2021/09/04 06:19:40;;;;;;;7.95;2.33;;;;;;;27.88;44.90;100894.72;5071610;28;20124;-74
2021/09/04 06:22:07;;;;;;;6.53;2.28;;;;;;;28.30;44.10;100889.66;5071572;28;20029;-74
2021/09/04 06:24:35;;;;;;;9.65;2.55;;;;;;;28.76;43.26;100892.50;5071447;28;20044;-74
2021/09/04 06:27:02;;;;;;;8.15;2.38;;;;;;;28.90;43.16;100889.88;5065895;28;20144;-73
2021/09/04 06:29:32;;;;;;;8.98;2.20;;;;;;;29.23;42.42;100893.31;5072349;28;20086;-74
2021/09/04 06:32:09;;;;;;;8.32;2.33;;;;;;;29.57;41.58;100904.94;5069931;28;20076;-74
2021/09/04 06:34:37;;;;;;;7.28;2.42;;;;;;;29.20;41.76;100885.38;5069473;28;20046;-74
2021/09/04 06:37:24;;;;;;;8.73;2.42;;;;;;;28.45;43.07;100882.50;5067521;28;20403;-74
2021/09/04 06:39:53;;;;;;;11.25;2.65;;;;;;;28.29;43.70;100882.47;5056929;28;20037;-74
2021/09/04 06:42:23;;;;;;;6.93;2.13;;;;;;;28.78;43.08;100893.31;5053238;28;20048;-74
2021/09/04 06:44:52;;;;;;;9.63;2.72;;;;;;;29.21;42.25;100891.69;5064359;28;20044;-75
2021/09/04 06:47:20;;;;;;;6.07;2.28;;;;;;;29.60;41.73;100894.72;5071541;28;20391;-72
2021/09/04 06:49:48;;;;;;;8.65;2.45;;;;;;;29.94;40.85;100900.81;5071407;28;20475;-72
2021/09/04 06:52:17;;;;;;;8.88;2.20;;;;;;;30.38;40.47;100898.03;5071857;28;20094;-72
2021/09/04 06:54:44;;;;;;;10.82;2.00;;;;;;;30.67;40.33;100904.31;5071700;28;20047;-73
2021/09/04 06:57:12;;;;;;;8.05;2.55;;;;;;;30.74;40.25;100914.72;5071730;28;20050;-73
2021/09/04 06:59:39;;;;;;;6.38;2.20;;;;;;;30.48;40.70;100913.66;5067295;28;20044;-72
2021/09/04 07:02:10;;;;;;;6.97;2.22;;;;;;;30.49;40.27;100918.19;5070545;28;20043;-73
2021/09/04 07:04:38;;;;;;;7.78;1.80;;;;;;;30.61;39.68;100921.94;5071198;28;20041;-72
2021/09/04 07:07:07;;;;;;;5.50;1.70;;;;;;;30.68;39.18;100931.47;5071427;28;20037;-72
2021/09/04 07:09:34;;;;;;;7.45;2.22;;;;;;;30.61;39.21;100926.53;5060639;28;20048;-71
2021/09/04 07:12:01;;;;;;;6.93;2.20;;;;;;;30.56;39.22;100928.69;5076820;28;20373;-71
2021/09/04 07:14:29;;;;;;;8.75;2.40;;;;;;;30.56;38.58;100937.72;5070988;28;20111;-72
2021/09/04 07:16:56;;;;;;;7.95;2.28;;;;;;;30.36;38.61;100938.97;5071132;28;20040;-70
2021/09/04 07:19:25;;;;;;;6.22;2.45;;;;;;;30.64;38.40;100919.03;5071481;28;20365;-73
2021/09/04 07:21:54;;;;;;;6.00;2.10;;;;;;;30.96;38.43;100930.53;5072594;28;20498;-71
2021/09/04 07:24:22;;;;;;;8.18;2.25;;;;;;;31.06;38.48;100936.28;5071667;28;20124;-72
2021/09/04 07:26:49;;;;;;;7.10;2.20;;;;;;;31.02;38.70;100937.44;5071108;28;20052;-72
2021/09/04 07:29:19;;;;;;;8.80;2.10;;;;;;;30.80;39.21;100937.97;5070513;28;20068;-71
2021/09/04 07:31:46;;;;;;;6.40;2.35;;;;;;;30.53;39.41;100943.38;5069717;28;20883;-71
2021/09/04 07:34:14;;;;;;;7.25;2.65;;;;;;;30.44;39.80;100944.81;5071237;28;20032;-72
2021/09/04 07:36:41;;;;;;;10.55;1.98;;;;;;;30.47;39.65;100943.72;5066899;28;20040;-71
2021/09/04 07:39:10;;;;;;;9.85;2.90;;;;;;;30.47;39.22;100938.28;5067055;28;20044;-72
2021/09/04 07:41:38;;;;;;;6.65;2.45;;;;;;;30.44;39.13;100943.94;5071055;28;20068;-72
2021/09/04 07:44:06;;;;;;;8.02;2.20;;;;;;;30.59;38.80;100936.66;5070126;28;20040;-72
2021/09/04 07:46:34;;;;;;;7.60;2.30;;;;;;;30.80;38.95;100943.44;5069984;28;20047;-71
2021/09/04 07:49:03;;;;;;;5.85;2.55;;;;;;;31.09;39.03;100934.22;5070840;28;20056;-71
2021/09/04 07:51:32;;;;;;;7.60;2.45;;;;;;;30.81;38.44;100937.88;5070791;28;20040;-72
2021/09/04 07:54:00;;;;;;;8.85;2.20;;;;;;;30.98;38.09;100927.72;5065645;28;20086;-72
2021/09/04 07:56:37;;;;;;;7.28;2.17;;;;;;;31.07;37.26;100922.53;5070172;28;20041;-74
2021/09/04 07:59:06;;;;;;;12.55;2.80;;;;;;;31.02;37.91;100912.88;5063289;28;20048;-74
2021/09/04 08:01:34;;;;;;;6.97;2.15;;;;;;;31.24;37.77;100925.00;5057884;28;20536;-71
2021/09/04 08:04:04;;;;;;;4.63;2.20;;;;;;;31.64;37.27;100925.91;5054672;28;20098;-73
2021/09/04 08:06:31;;;;;;;9.38;2.03;;;;;;;31.57;37.16;100927.25;5074592;28;20068;-72
2021/09/04 08:08:58;;;;;;;8.88;2.30;;;;;;;31.25;37.49;100925.88;5066426;28;20037;-72
2021/09/04 08:11:26;;;;;;;6.82;2.47;;;;;;;31.41;37.01;100932.03;5074507;28;20387;-74
2021/09/04 08:13:57;;;;;;;9.15;2.00;;;;;;;31.77;36.40;100930.53;5073618;28;20041;-72
2021/09/04 08:16:25;;;;;;;7.78;2.60;;;;;;;31.64;36.83;100931.34;5073517;28;20043;-72
2021/09/04 08:18:53;;;;;;;6.53;2.25;;;;;;;31.77;36.70;100938.72;5069954;28;20040;-73
2021/09/04 08:21:20;;;;;;;8.18;2.58;;;;;;;31.69;37.40;100932.91;5067986;28;20050;-73
2021/09/04 08:23:48;;;;;;;6.90;2.40;;;;;;;32.08;36.94;100937.41;5079726;28;20387;-73
2021/09/04 08:26:16;;;;;;;13.63;2.72;;;;;;;32.42;35.87;100929.47;5074049;28;20028;-72
2021/09/04 08:28:45;;;;;;;8.18;2.13;;;;;;;32.20;36.08;100934.72;5072365;28;20067;-72
2021/09/04 08:31:14;;;;;;;9.48;2.13;;;;;;;31.93;36.18;100926.59;5073970;28;20380;-73
2021/09/04 08:33:41;;;;;;;6.40;1.77;;;;;;;32.21;35.81;100932.84;5069986;28;20424;-72
2021/09/04 08:36:09;;;;;;;8.38;2.60;;;;;;;32.10;35.76;100932.72;5071345;28;20036;-72
2021/09/04 08:38:37;;;;;;;6.63;2.67;;;;;;;31.97;36.11;100919.91;5074086;28;20048;-72
2021/09/04 08:41:07;;;;;;;6.32;2.53;;;;;;;32.04;36.39;100934.88;5066018;28;20040;-72
2021/09/04 08:43:38;;;;;;;7.80;2.20;;;;;;;32.10;36.38;100936.31;5067992;28;20048;-73
2021/09/04 08:46:07;;;;;;;6.40;3.25;;;;;;;32.27;35.78;100922.34;5061590;28;20060;-72
2021/09/04 08:48:38;;;;;;;9.07;2.38;;;;;;;32.12;35.48;100936.19;5066366;28;20379;-72
2021/09/04 08:51:07;;;;;;;6.50;2.40;;;;;;;31.78;36.09;100924.06;5073970;28;20045;-72
2021/09/04 08:53:34;;;;;;;12.30;2.42;;;;;;;31.54;36.31;100949.34;5076311;28;20041;-72
2021/09/04 08:56:10;;;;;;;6.40;2.28;;;;;;;31.54;36.21;100938.41;5074481;28;20045;-71
2021/09/04 08:58:44;;;;;;;7.50;2.55;;;;;;;31.74;36.08;100950.72;5073163;28;20040;-72
2021/09/04 09:01:23;;;;;;;12.52;2.97;;;;;;;31.97;36.09;100943.63;5073274;28;20041;-71
2021/09/04 09:04:03;;;;;;;6.90;2.75;;;;;;;32.19;35.90;100945.75;5056211;28;20055;-71
2021/09/04 09:06:31;;;;;;;10.90;2.90;;;;;;;32.18;35.73;100944.00;5073178;28;20045;-71
2021/09/04 09:08:59;;;;;;;6.97;2.00;;;;;;;32.16;35.60;100938.66;5072972;28;20036;-71
2021/09/04 09:11:27;;;;;;;9.05;2.47;;;;;;;32.16;35.76;100932.31;5073396;28;20114;-71
2021/09/04 09:13:58;;;;;;;9.93;2.50;;;;;;;32.30;36.15;100927.59;5068085;28;20435;-69
2021/09/04 09:16:25;;;;;;;12.70;2.35;;;;;;;32.45;36.27;100926.47;5073529;28;20412;-71
2021/09/04 09:19:02;;;;;;;7.70;2.45;;;;;;;32.43;36.13;100922.97;5075588;28;20036;-71
2021/09/04 09:21:41;;;;;;;7.25;2.53;;;;;;;32.32;36.54;100920.16;5070849;28;20040;-72
2021/09/04 09:24:11;;;;;;;7.97;2.30;;;;;;;32.32;36.73;100936.56;5073921;28;20048;-72
2021/09/04 09:26:48;;;;;;;7.60;2.78;;;;;;;32.40;36.36;100927.81;5070994;28;20040;-72
2021/09/04 09:29:17;;;;;;;8.35;2.22;;;;;;;32.56;36.20;100927.56;5073006;28;20040;-72
2021/09/04 09:31:46;;;;;;;5.05;2.15;;;;;;;32.52;36.05;100921.44;5072265;28;20098;-71
2021/09/04 09:34:16;;;;;;;11.07;2.78;;;;;;;32.56;36.24;100927.56;5072611;28;20413;-72
2021/09/04 09:36:55;;;;;;;9.20;2.60;;;;;;;32.67;35.48;100930.41;5072849;28;20043;-71
2021/09/04 09:39:28;;;;;;;7.45;2.25;;;;;;;32.71;35.75;100916.38;5076227;28;20039;-71
2021/09/04 09:41:57;;;;;;;8.93;2.38;;;;;;;32.78;35.74;100900.38;5072838;28;20044;-71
2021/09/04 09:44:27;;;;;;;6.97;2.30;;;;;;;32.72;35.56;100914.53;5072778;28;20036;-71
2021/09/04 09:46:57;;;;;;;9.77;2.60;;;;;;;32.48;35.94;100910.84;5069860;28;20480;-71
2021/09/04 09:49:30;;;;;;;6.85;2.47;;;;;;;32.48;35.93;100921.78;5072529;28;20041;-72
2021/09/04 09:51:59;;;;;;;8.68;2.45;;;;;;;32.45;35.74;100920.13;5072608;28;20041;-71
2021/09/04 09:54:28;;;;;;;11.43;2.65;;;;;;;32.35;36.01;100914.47;5072588;28;20048;-71
2021/09/04 09:56:58;;;;;;;9.18;2.55;;;;;;;32.33;35.90;100921.91;5063153;28;20361;-70
2021/09/04 09:59:28;;;;;;;5.78;2.45;;;;;;;32.02;36.11;100915.03;5073884;28;20047;-71
2021/09/04 10:01:57;;;;;;;12.88;2.97;;;;;;;32.10;36.60;100914.44;5066581;28;20036;-72
2021/09/04 10:04:28;;;;;;;12.25;2.70;;;;;;;32.21;36.40;100914.59;5067628;28;20399;-72
2021/09/04 10:07:09;;;;;;;9.70;3.05;;;;;;;32.06;36.52;100915.66;5065772;28;20377;-72
2021/09/04 10:09:38;;;;;;;11.43;2.85;;;;;;;32.02;36.67;100923.22;5066184;28;20049;-72
2021/09/04 10:12:09;;;;;;;8.68;3.10;;;;;;;31.96;36.69;100917.31;5066563;28;20550;-73
2021/09/04 10:14:37;;;;;;;7.68;3.20;;;;;;;32.11;36.55;100921.66;5072317;28;20416;-72
2021/09/04 10:17:26;;;;;;;5.57;2.95;;;;;;;32.10;35.92;100908.13;5069663;28;20044;-72
2021/09/04 10:19:54;;;;;;;8.00;2.92;;;;;;;32.18;35.62;100914.81;5064640;28;20047;-73
2021/09/04 10:22:23;;;;;;;9.45;3.00;;;;;;;32.23;35.36;100920.81;5083167;28;20106;-72
2021/09/04 10:24:52;;;;;;;7.82;3.08;;;;;;;32.26;35.55;100909.66;5069305;28;20511;-73
2021/09/04 10:27:34;;;;;;;8.48;3.10;;;;;;;32.26;35.39;100919.72;5082219;28;20054;-72
2021/09/04 10:30:25;;;;;;;12.45;3.78;;;;;;;32.28;35.77;100923.22;5074201;28;20389;-71
2021/09/04 10:33:05;;;;;;;11.35;2.80;;;;;;;32.14;34.98;100926.09;5077304;28;20098;-72
2021/09/04 10:35:51;;;;;;;10.68;3.00;;;;;;;32.10;35.09;100928.09;5070746;28;20044;-71
2021/09/04 10:38:37;;;;;;;10.55;3.00;;;;;;;31.97;35.47;100943.63;5070605;28;20036;-71
2021/09/04 10:41:25;;;;;;;8.55;2.95;;;;;;;32.05;36.05;100941.22;5065335;28;20387;-72
2021/09/04 10:43:57;;;;;;;14.02;3.30;;;;;;;32.15;36.05;100942.38;5067947;28;20033;-72
2021/09/04 10:46:30;;;;;;;9.15;3.42;;;;;;;32.22;36.07;100942.81;5041468;27;21052;-72
2021/09/04 10:49:04;;;;;;;9.27;2.88;;;;;;;32.28;35.57;100945.09;5070885;28;20487;-72
2021/09/04 10:51:51;;;;;;;8.20;2.78;;;;;;;32.27;35.91;100943.34;5070712;28;20032;-72
2021/09/04 10:55:02;;;;;;;5.80;3.05;;;;;;;32.44;35.91;100953.91;5067763;28;20128;-72
2021/09/04 10:57:46;;;;;;;7.07;3.00;;;;;;;32.54;35.43;100946.81;5070568;28;20036;-70
2021/09/04 11:00:20;;;;;;;10.40;3.08;;;;;;;32.61;35.41;100955.44;5065688;28;20047;-71
2021/09/04 11:02:51;;;;;;;8.77;3.10;;;;;;;32.62;34.76;100951.72;5068136;28;20051;-73
2021/09/04 11:05:49;;;;;;;9.63;3.55;;;;;;;32.76;34.36;100951.59;5071226;28;20384;-73
2021/09/04 11:08:35;;;;;;;11.95;3.60;;;;;;;32.98;34.20;100950.88;5069699;28;20398;-73
2021/09/04 11:11:18;;;;;;;9.02;3.25;;;;;;;33.15;33.99;100964.16;5070982;28;20044;-72
2021/09/04 11:13:49;;;;;;;5.53;2.75;;;;;;;33.32;33.74;100976.63;5071982;28;20072;-72
2021/09/04 11:16:44;;;;;;;11.25;3.08;;;;;;;33.26;33.69;100977.09;5067691;28;20049;-71
2021/09/04 11:19:14;;;;;;;11.13;3.00;;;;;;;33.25;33.75;100969.84;5071305;28;20033;-72
2021/09/04 11:21:48;;;;;;;9.82;3.15;;;;;;;33.35;33.68;100965.41;5053565;28;20049;-72
2021/09/04 11:24:32;;;;;;;13.00;3.28;;;;;;;33.44;33.85;100970.19;5070315;28;20098;-73
2021/09/04 11:27:09;;;;;;;7.05;2.78;;;;;;;33.71;33.61;100973.59;5070805;28;20065;-72
2021/09/04 11:29:41;;;;;;;11.68;3.58;;;;;;;33.87;33.61;100963.16;5071233;28;20090;-72
2021/09/04 11:32:10;;;;;;;8.45;3.03;;;;;;;33.91;33.34;100963.81;5070275;28;20106;-75
2021/09/04 11:34:49;;;;;;;9.93;2.92;;;;;;;33.85;33.52;100965.16;5070750;28;20049;-73
2021/09/04 11:37:28;;;;;;;10.35;2.60;;;;;;;34.05;33.46;100965.47;5073221;28;20037;-73
2021/09/04 11:40:02;;;;;;;7.45;2.83;;;;;;;34.29;33.44;100960.78;5075407;28;20040;-73
2021/09/04 11:42:36;;;;;;;9.68;3.15;;;;;;;34.44;32.87;100958.69;5074004;28;20066;-73
2021/09/04 11:45:05;;;;;;;7.88;3.17;;;;;;;34.59;32.61;100963.75;5074606;28;20040;-72
2021/09/04 11:47:38;;;;;;;9.95;2.80;;;;;;;34.65;32.43;100966.03;5075026;28;20131;-73